Shinkaiho — JD3177 — position and weather

sailwx.info

Track history (hours):
 
Tides and Currents Weather Stations Pressure Air Temp Water Temp Dewpoint Dewpoint Depression Visibility Wind Speed Wind Dir Waves Ship Positions

Shinkaiho

Last reported at 2017-Oct-10 13:54 UTC. Time now 2017-Oct-20 01:34 UTC.
Position N 35°06' E 139°37'.
Warning: this ship's position is 9 days out of date.

Length 34 m; draft 4.8 m.

Type: Tug. MMSI: 431002459.

Date/timePositionNaut miles runAvg speedWind from/ knotsBaromVisibWave heightAir tempDewpointWater temp
2017-Oct-10 13:54N 35°06' E 139°37'3 6.4
2017-Oct-10 13:27N 35°07' E 139°40'3 6.2
2017-Oct-10 13:00N 35°09' E 139°43'4 8.8
2017-Oct-10 12:30N 35°13' E 139°46'5 0.1
2017-Oct-08 21:05N 35°18' E 139°45'1 9.1
2017-Oct-08 20:58N 35°17' E 139°46'4 8.2
2017-Oct-08 20:27N 35°13' E 139°47'4 7.8
2017-Oct-08 20:00N 35°09' E 139°47'3 5.5
2017-Oct-08 19:28N 35°06' E 139°46'3 7.3
2017-Oct-08 19:00N 35°03' E 139°44'3 6.6
2017-Oct-08 18:30N 35°00' E 139°42'7 0.2
2017-Oct-07 07:03N 35°06' E 139°38'110.6
2017-Oct-07 06:56N 35°07' E 139°40'410.3
2017-Oct-07 06:30N 35°10' E 139°44'15 0.4
2017-Oct-05 15:30N 35°24' E 139°46'2 5.0
2017-Oct-05 15:00N 35°22' E 139°45'3 5.0
2017-Oct-05 14:21N 35°19' E 139°44'2 5.0
2017-Oct-05 13:55N 35°17' E 139°46'3 3.9
2017-Oct-05 13:03N 35°14' E 139°47'1 3.6
2017-Oct-05 12:45N 35°13' E 139°47'1 2.8
2017-Oct-05 12:28N 35°12' E 139°47'1 2.0
2017-Oct-05 12:00N 35°11' E 139°47'1 2.5
2017-Oct-05 11:29N 35°10' E 139°47'1 2.6
2017-Oct-05 11:00N 35°08' E 139°47'2 4.1
2017-Oct-05 10:28N 35°06' E 139°46'2 5.1
2017-Oct-05 10:00N 35°04' E 139°46'4 5.0
2017-Oct-05 09:11N 35°01' E 139°43'1 5.3
2017-Oct-05 08:54N 35°00' E 139°41'  
2017-Oct-02 04:50N 34°34' E 135°03'3 0.4
2017-Oct-01 20:49N 34°37' E 135°06'410.9
2017-Oct-01 20:29N 34°38' E 135°10'2 4.9
2017-Oct-01 19:59N 34°40' E 135°11'0 0.0
2017-Oct-01 19:29N 34°40' E 135°11'0 0.0
2017-Oct-01 18:53N 34°40' E 135°11'0 0.0
2017-Oct-01 18:29N 34°40' E 135°11'0 0.0
2017-Oct-01 17:53N 34°40' E 135°11'0 0.0
2017-Oct-01 17:29N 34°40' E 135°11'0 0.0
2017-Oct-01 16:59N 34°40' E 135°11'0 0.0
2017-Oct-01 16:29N 34°40' E 135°11'0 0.0
2017-Oct-01 15:59N 34°40' E 135°11'0 0.0
2017-Oct-01 15:29N 34°40' E 135°11'0 0.0
2017-Oct-01 14:59N 34°40' E 135°11'0 0.0
2017-Oct-01 14:29N 34°40' E 135°11'0 0.0
2017-Oct-01 13:59N 34°40' E 135°11'0 0.0
2017-Oct-01 13:29N 34°40' E 135°11'0 0.0
2017-Oct-01 12:59N 34°40' E 135°11'0 0.0
2017-Oct-01 12:23N 34°40' E 135°11'0 0.0
2017-Oct-01 11:59N 34°40' E 135°11'0 0.0
2017-Oct-01 11:23N 34°40' E 135°11'0 0.0
2017-Oct-01 10:59N 34°40' E 135°11'0 0.0
2017-Oct-01 10:29N 34°40' E 135°11'0 0.0
2017-Oct-01 09:59N 34°40' E 135°11'0 0.0
2017-Oct-01 09:29N 34°40' E 135°11'0 0.0
2017-Oct-01 08:59N 34°40' E 135°11'0 0.0
2017-Oct-01 08:29N 34°40' E 135°11'0 0.0
2017-Oct-01 07:59N 34°40' E 135°11'0 0.0
2017-Oct-01 07:23N 34°40' E 135°11'0 0.0
2017-Oct-01 06:59N 34°40' E 135°11'0 0.0
2017-Oct-01 06:29N 34°40' E 135°11'0 0.0
2017-Oct-01 05:59N 34°40' E 135°11'0 0.0
2017-Oct-01 05:23N 34°40' E 135°11'0 0.0
2017-Oct-01 04:59N 34°40' E 135°11'0 0.0
2017-Oct-01 04:29N 34°40' E 135°11'0 0.0
2017-Oct-01 03:59N 34°40' E 135°11'0 0.0
2017-Oct-01 03:29N 34°40' E 135°11'0 0.0
2017-Oct-01 02:59N 34°40' E 135°11'  
Track history (hours):
 
Tides and Currents Weather Stations Pressure Air Temp Water Temp Dewpoint Dewpoint Depression Visibility Wind Speed Wind Dir Waves Ship Positions

Shinkaiho

Last reported at 2017-Oct-10 13:54 UTC. Time now 2017-Oct-20 01:34 UTC.
Position N 35°06' E 139°37'.
Warning: this ship's position is 9 days out of date.

Length 34 m; draft 4.8 m.

Type: Tug. MMSI: 431002459.

Date/timePositionNaut miles runAvg speedWind from/ knotsBaromVisibWave heightAir tempDewpointWater temp
2017-Oct-10 13:54N 35°06' E 139°37'3 6.4
2017-Oct-10 13:27N 35°07' E 139°40'3 6.2
2017-Oct-10 13:00N 35°09' E 139°43'4 8.8
2017-Oct-10 12:30N 35°13' E 139°46'5 0.1
2017-Oct-08 21:05N 35°18' E 139°45'1 9.1
2017-Oct-08 20:58N 35°17' E 139°46'4 8.2
2017-Oct-08 20:27N 35°13' E 139°47'4 7.8
2017-Oct-08 20:00N 35°09' E 139°47'3 5.5
2017-Oct-08 19:28N 35°06' E 139°46'3 7.3
2017-Oct-08 19:00N 35°03' E 139°44'3 6.6
2017-Oct-08 18:30N 35°00' E 139°42'7 0.2
2017-Oct-07 07:03N 35°06' E 139°38'110.6
2017-Oct-07 06:56N 35°07' E 139°40'410.3
2017-Oct-07 06:30N 35°10' E 139°44'15 0.4
2017-Oct-05 15:30N 35°24' E 139°46'2 5.0
2017-Oct-05 15:00N 35°22' E 139°45'3 5.0
2017-Oct-05 14:21N 35°19' E 139°44'2 5.0
2017-Oct-05 13:55N 35°17' E 139°46'3 3.9
2017-Oct-05 13:03N 35°14' E 139°47'1 3.6
2017-Oct-05 12:45N 35°13' E 139°47'1 2.8
2017-Oct-05 12:28N 35°12' E 139°47'1 2.0
2017-Oct-05 12:00N 35°11' E 139°47'1 2.5
2017-Oct-05 11:29N 35°10' E 139°47'1 2.6
2017-Oct-05 11:00N 35°08' E 139°47'2 4.1
2017-Oct-05 10:28N 35°06' E 139°46'2 5.1
2017-Oct-05 10:00N 35°04' E 139°46'4 5.0
2017-Oct-05 09:11N 35°01' E 139°43'1 5.3
2017-Oct-05 08:54N 35°00' E 139°41'  
2017-Oct-02 04:50N 34°34' E 135°03'3 0.4
2017-Oct-01 20:49N 34°37' E 135°06'410.9
2017-Oct-01 20:29N 34°38' E 135°10'2 4.9
2017-Oct-01 19:59N 34°40' E 135°11'0 0.0
2017-Oct-01 19:29N 34°40' E 135°11'0 0.0
2017-Oct-01 18:53N 34°40' E 135°11'0 0.0
2017-Oct-01 18:29N 34°40' E 135°11'0 0.0
2017-Oct-01 17:53N 34°40' E 135°11'0 0.0
2017-Oct-01 17:29N 34°40' E 135°11'0 0.0
2017-Oct-01 16:59N 34°40' E 135°11'0 0.0
2017-Oct-01 16:29N 34°40' E 135°11'0 0.0
2017-Oct-01 15:59N 34°40' E 135°11'0 0.0
2017-Oct-01 15:29N 34°40' E 135°11'0 0.0
2017-Oct-01 14:59N 34°40' E 135°11'0 0.0
2017-Oct-01 14:29N 34°40' E 135°11'0 0.0
2017-Oct-01 13:59N 34°40' E 135°11'0 0.0
2017-Oct-01 13:29N 34°40' E 135°11'0 0.0
2017-Oct-01 12:59N 34°40' E 135°11'0 0.0
2017-Oct-01 12:23N 34°40' E 135°11'0 0.0
2017-Oct-01 11:59N 34°40' E 135°11'0 0.0
2017-Oct-01 11:23N 34°40' E 135°11'0 0.0
2017-Oct-01 10:59N 34°40' E 135°11'0 0.0
2017-Oct-01 10:29N 34°40' E 135°11'0 0.0
2017-Oct-01 09:59N 34°40' E 135°11'0 0.0
2017-Oct-01 09:29N 34°40' E 135°11'0 0.0
2017-Oct-01 08:59N 34°40' E 135°11'0 0.0
2017-Oct-01 08:29N 34°40' E 135°11'0 0.0
2017-Oct-01 07:59N 34°40' E 135°11'0 0.0
2017-Oct-01 07:23N 34°40' E 135°11'0 0.0
2017-Oct-01 06:59N 34°40' E 135°11'0 0.0
2017-Oct-01 06:29N 34°40' E 135°11'0 0.0
2017-Oct-01 05:59N 34°40' E 135°11'0 0.0
2017-Oct-01 05:23N 34°40' E 135°11'0 0.0
2017-Oct-01 04:59N 34°40' E 135°11'0 0.0
2017-Oct-01 04:29N 34°40' E 135°11'0 0.0
2017-Oct-01 03:59N 34°40' E 135°11'0 0.0
2017-Oct-01 03:29N 34°40' E 135°11'0 0.0
2017-Oct-01 02:59N 34°40' E 135°11'  

Dump ship's entire track history